sensor_id;sensor_type;location;lat;lon;timestamp;pressure;altitude;pressure_sealevel;temperature;humidity
15678;BME280;7939;50.814;6.368;2023-10-31T00:00:18;98076.44;;;15.93;66.77
15678;BME280;7939;50.814;6.368;2023-10-31T00:02:45;98081.50;;;15.94;66.64
15678;BME280;7939;50.814;6.368;2023-10-31T00:05:13;98088.25;;;15.97;67.11
15678;BME280;7939;50.814;6.368;2023-10-31T00:07:40;98087.56;;;15.93;66.55
15678;BME280;7939;50.814;6.368;2023-10-31T00:10:07;98101.97;;;15.97;66.79
15678;BME280;7939;50.814;6.368;2023-10-31T00:12:34;98094.47;;;15.93;66.38
15678;BME280;7939;50.814;6.368;2023-10-31T00:15:01;98104.03;;;15.90;66.34
15678;BME280;7939;50.814;6.368;2023-10-31T00:17:27;98109.19;;;15.90;66.27
15678;BME280;7939;50.814;6.368;2023-10-31T00:19:54;98110.97;;;15.88;66.49
15678;BME280;7939;50.814;6.368;2023-10-31T00:22:22;98128.09;;;15.89;66.57
15678;BME280;7939;50.814;6.368;2023-10-31T00:24:49;98115.59;;;15.82;66.77
15678;BME280;7939;50.814;6.368;2023-10-31T00:27:15;98119.81;;;15.83;66.00
15678;BME280;7939;50.814;6.368;2023-10-31T00:29:42;98121.34;;;15.87;66.28
15678;BME280;7939;50.814;6.368;2023-10-31T00:32:08;98117.03;;;15.87;66.32
15678;BME280;7939;50.814;6.368;2023-10-31T00:34:35;98124.63;;;15.90;66.38
15678;BME280;7939;50.814;6.368;2023-10-31T00:37:02;98117.94;;;15.86;65.83
15678;BME280;7939;50.814;6.368;2023-10-31T00:39:30;98112.78;;;15.86;65.75
15678;BME280;7939;50.814;6.368;2023-10-31T00:41:56;98129.09;;;15.87;66.06
15678;BME280;7939;50.814;6.368;2023-10-31T00:44:23;98130.38;;;15.78;65.69
15678;BME280;7939;50.814;6.368;2023-10-31T00:46:49;98124.94;;;15.84;65.82
15678;BME280;7939;50.814;6.368;2023-10-31T00:49:16;98135.53;;;15.78;65.83
15678;BME280;7939;50.814;6.368;2023-10-31T00:51:43;98137.09;;;15.81;65.97
15678;BME280;7939;50.814;6.368;2023-10-31T00:54:09;98145.59;;;15.83;65.84
15678;BME280;7939;50.814;6.368;2023-10-31T00:56:37;98150.97;;;15.78;65.91
15678;BME280;7939;50.814;6.368;2023-10-31T00:59:04;98152.09;;;15.73;65.26
15678;BME280;7939;50.814;6.368;2023-10-31T01:01:30;98160.47;;;15.57;65.63
15678;BME280;7939;50.814;6.368;2023-10-31T01:03:57;98159.81;;;15.73;65.62
15678;BME280;7939;50.814;6.368;2023-10-31T01:06:24;98153.13;;;15.69;65.54
15678;BME280;7939;50.814;6.368;2023-10-31T01:08:50;98150.72;;;15.66;65.28
15678;BME280;7939;50.814;6.368;2023-10-31T01:11:17;98160.78;;;15.70;65.62
15678;BME280;7939;50.814;6.368;2023-10-31T01:13:45;98159.03;;;15.71;65.66
15678;BME280;7939;50.814;6.368;2023-10-31T01:16:11;98155.28;;;15.78;65.71
15678;BME280;7939;50.814;6.368;2023-10-31T01:18:38;98169.88;;;15.77;65.62
15678;BME280;7939;50.814;6.368;2023-10-31T01:21:05;98159.94;;;15.70;65.53
15678;BME280;7939;50.814;6.368;2023-10-31T01:23:31;98159.44;;;15.61;65.31
15678;BME280;7939;50.814;6.368;2023-10-31T01:25:58;98160.03;;;15.68;65.59
15678;BME280;7939;50.814;6.368;2023-10-31T01:28:24;98160.09;;;15.67;65.30
15678;BME280;7939;50.814;6.368;2023-10-31T01:30:52;98156.13;;;15.59;65.01
15678;BME280;7939;50.814;6.368;2023-10-31T01:33:19;98160.22;;;15.63;65.38
15678;BME280;7939;50.814;6.368;2023-10-31T01:35:46;98149.22;;;15.60;65.53
15678;BME280;7939;50.814;6.368;2023-10-31T01:38:11;98151.00;;;15.58;65.41
15678;BME280;7939;50.814;6.368;2023-10-31T01:40:38;98164.88;;;15.55;65.08
15678;BME280;7939;50.814;6.368;2023-10-31T01:43:04;98160.34;;;15.60;65.85
15678;BME280;7939;50.814;6.368;2023-10-31T01:45:31;98163.28;;;15.53;65.19
15678;BME280;7939;50.814;6.368;2023-10-31T01:47:59;98161.56;;;15.53;65.13
15678;BME280;7939;50.814;6.368;2023-10-31T01:50:26;98161.69;;;15.50;65.52
15678;BME280;7939;50.814;6.368;2023-10-31T01:52:54;98166.34;;;15.42;65.23
15678;BME280;7939;50.814;6.368;2023-10-31T01:55:20;98165.25;;;15.48;65.15
15678;BME280;7939;50.814;6.368;2023-10-31T01:57:48;98169.59;;;15.46;65.06
15678;BME280;7939;50.814;6.368;2023-10-31T02:00:16;98169.75;;;15.43;65.13
15678;BME280;7939;50.814;6.368;2023-10-31T02:02:43;98169.47;;;15.49;65.56
15678;BME280;7939;50.814;6.368;2023-10-31T02:05:11;98174.16;;;15.41;65.00
15678;BME280;7939;50.814;6.368;2023-10-31T02:07:37;98165.44;;;15.43;65.43
15678;BME280;7939;50.814;6.368;2023-10-31T02:10:05;98173.78;;;15.48;65.31
15678;BME280;7939;50.814;6.368;2023-10-31T02:12:32;98174.34;;;15.36;65.34
15678;BME280;7939;50.814;6.368;2023-10-31T02:14:59;98158.06;;;15.35;65.25
15678;BME280;7939;50.814;6.368;2023-10-31T02:17:26;98162.22;;;15.38;65.36
15678;BME280;7939;50.814;6.368;2023-10-31T02:19:53;98169.13;;;15.37;65.49
15678;BME280;7939;50.814;6.368;2023-10-31T02:22:21;98163.56;;;15.47;65.46
15678;BME280;7939;50.814;6.368;2023-10-31T02:24:48;98164.13;;;15.34;65.20
15678;BME280;7939;50.814;6.368;2023-10-31T02:27:14;98157.16;;;15.36;64.94
15678;BME280;7939;50.814;6.368;2023-10-31T02:29:41;98156.59;;;15.30;65.18
15678;BME280;7939;50.814;6.368;2023-10-31T02:32:07;98155.41;;;15.37;65.41
15678;BME280;7939;50.814;6.368;2023-10-31T02:34:34;98153.00;;;15.34;65.28
15678;BME280;7939;50.814;6.368;2023-10-31T02:37:01;98156.19;;;15.39;65.33
15678;BME280;7939;50.814;6.368;2023-10-31T02:39:29;98154.09;;;15.47;65.49
15678;BME280;7939;50.814;6.368;2023-10-31T02:41:55;98152.72;;;15.21;65.03
15678;BME280;7939;50.814;6.368;2023-10-31T02:44:23;98151.38;;;15.31;65.51
15678;BME280;7939;50.814;6.368;2023-10-31T02:46:49;98159.09;;;15.31;65.90
15678;BME280;7939;50.814;6.368;2023-10-31T02:49:16;98160.38;;;15.23;65.32
15678;BME280;7939;50.814;6.368;2023-10-31T02:51:43;98156.69;;;15.28;65.22
15678;BME280;7939;50.814;6.368;2023-10-31T02:54:09;98162.75;;;15.27;65.33
15678;BME280;7939;50.814;6.368;2023-10-31T02:56:37;98162.59;;;15.30;65.30
15678;BME280;7939;50.814;6.368;2023-10-31T02:59:04;98169.88;;;15.21;65.29
15678;BME280;7939;50.814;6.368;2023-10-31T03:01:32;98161.13;;;15.25;65.13
15678;BME280;7939;50.814;6.368;2023-10-31T03:03:58;98167.19;;;15.24;65.61
15678;BME280;7939;50.814;6.368;2023-10-31T03:06:25;98167.94;;;15.26;65.77
15678;BME280;7939;50.814;6.368;2023-10-31T03:08:51;98177.03;;;15.14;65.24
15678;BME280;7939;50.814;6.368;2023-10-31T03:11:22;98168.34;;;15.17;65.37
15678;BME280;7939;50.814;6.368;2023-10-31T03:13:50;98170.03;;;15.18;65.63
15678;BME280;7939;50.814;6.368;2023-10-31T03:16:18;98179.69;;;15.13;65.49
15678;BME280;7939;50.814;6.368;2023-10-31T03:18:45;98174.59;;;15.11;65.55
15678;BME280;7939;50.814;6.368;2023-10-31T03:21:11;98184.00;;;15.12;65.45
15678;BME280;7939;50.814;6.368;2023-10-31T03:23:38;98178.84;;;15.12;65.33
15678;BME280;7939;50.814;6.368;2023-10-31T03:26:05;98187.28;;;15.16;65.53
15678;BME280;7939;50.814;6.368;2023-10-31T03:28:31;98183.00;;;15.15;65.61
15678;BME280;7939;50.814;6.368;2023-10-31T03:30:59;98173.84;;;15.09;65.48
15678;BME280;7939;50.814;6.368;2023-10-31T03:33:26;98183.16;;;15.11;65.55
15678;BME280;7939;50.814;6.368;2023-10-31T03:35:53;98183.16;;;15.11;65.39
15678;BME280;7939;50.814;6.368;2023-10-31T03:38:19;98186.50;;;15.14;65.45
15678;BME280;7939;50.814;6.368;2023-10-31T03:40:46;98189.78;;;15.17;65.35
15678;BME280;7939;50.814;6.368;2023-10-31T03:43:12;98182.31;;;15.11;65.48
15678;BME280;7939;50.814;6.368;2023-10-31T03:45:40;98188.66;;;15.04;65.28
15678;BME280;7939;50.814;6.368;2023-10-31T03:48:08;98208.16;;;15.08;65.77
15678;BME280;7939;50.814;6.368;2023-10-31T03:50:34;98210.44;;;15.16;65.61
15678;BME280;7939;50.814;6.368;2023-10-31T03:53:01;98220.09;;;15.10;65.44
15678;BME280;7939;50.814;6.368;2023-10-31T03:55:27;98218.63;;;15.05;65.59
15678;BME280;7939;50.814;6.368;2023-10-31T03:57:55;98230.56;;;15.06;65.56
15678;BME280;7939;50.814;6.368;2023-10-31T04:00:22;98227.09;;;15.07;65.55
15678;BME280;7939;50.814;6.368;2023-10-31T04:02:49;98226.91;;;15.11;65.82
15678;BME280;7939;50.814;6.368;2023-10-31T04:05:17;98239.94;;;15.07;65.50
15678;BME280;7939;50.814;6.368;2023-10-31T04:07:45;98236.34;;;15.11;65.80
15678;BME280;7939;50.814;6.368;2023-10-31T04:10:11;98246.84;;;15.06;65.00
15678;BME280;7939;50.814;6.368;2023-10-31T04:12:38;98237.25;;;15.10;65.52
15678;BME280;7939;50.814;6.368;2023-10-31T04:15:06;98244.16;;;15.09;65.40
15678;BME280;7939;50.814;6.368;2023-10-31T04:17:33;98251.78;;;15.11;65.83
15678;BME280;7939;50.814;6.368;2023-10-31T04:20:00;98251.78;;;15.11;65.49
15678;BME280;7939;50.814;6.368;2023-10-31T04:22:28;98264.84;;;15.06;65.87
15678;BME280;7939;50.814;6.368;2023-10-31T04:24:55;98266.41;;;15.10;65.81
15678;BME280;7939;50.814;6.368;2023-10-31T04:27:22;98272.06;;;14.98;65.78
15678;BME280;7939;50.814;6.368;2023-10-31T04:29:49;98270.13;;;15.03;65.49
15678;BME280;7939;50.814;6.368;2023-10-31T04:32:15;98274.31;;;15.06;65.55
15678;BME280;7939;50.814;6.368;2023-10-31T04:34:42;98275.22;;;15.05;65.37
15678;BME280;7939;50.814;6.368;2023-10-31T04:37:09;98279.78;;;14.98;65.63
15678;BME280;7939;50.814;6.368;2023-10-31T04:39:37;98278.63;;;15.05;65.32
15678;BME280;7939;50.814;6.368;2023-10-31T04:42:04;98277.28;;;14.97;65.38
15678;BME280;7939;50.814;6.368;2023-10-31T04:44:30;98279.56;;;14.82;65.49
15678;BME280;7939;50.814;6.368;2023-10-31T04:46:57;98281.88;;;14.89;65.30
15678;BME280;7939;50.814;6.368;2023-10-31T04:49:24;98282.97;;;14.83;65.30
15678;BME280;7939;50.814;6.368;2023-10-31T04:51:50;98277.06;;;14.81;65.29
15678;BME280;7939;50.814;6.368;2023-10-31T04:54:17;98279.44;;;14.86;65.28
15678;BME280;7939;50.814;6.368;2023-10-31T04:56:47;98281.69;;;14.93;65.50
15678;BME280;7939;50.814;6.368;2023-10-31T04:59:13;98287.69;;;14.94;65.38
15678;BME280;7939;50.814;6.368;2023-10-31T05:01:40;98288.59;;;14.93;65.52
15678;BME280;7939;50.814;6.368;2023-10-31T05:04:07;98288.44;;;14.96;65.73
15678;BME280;7939;50.814;6.368;2023-10-31T05:06:34;98295.13;;;15.00;65.75
15678;BME280;7939;50.814;6.368;2023-10-31T05:09:00;98296.44;;;14.90;65.31
15678;BME280;7939;50.814;6.368;2023-10-31T05:11:27;98297.28;;;14.90;65.21
15678;BME280;7939;50.814;6.368;2023-10-31T05:13:55;98303.25;;;14.91;65.81
15678;BME280;7939;50.814;6.368;2023-10-31T05:16:21;98299.25;;;14.83;65.39
15678;BME280;7939;50.814;6.368;2023-10-31T05:18:48;98309.56;;;14.83;65.29
15678;BME280;7939;50.814;6.368;2023-10-31T05:21:18;98304.91;;;14.92;65.57
15678;BME280;7939;50.814;6.368;2023-10-31T05:23:45;98310.31;;;14.86;65.11
15678;BME280;7939;50.814;6.368;2023-10-31T05:26:12;98311.22;;;14.84;65.44
15678;BME280;7939;50.814;6.368;2023-10-31T05:28:38;98311.50;;;14.77;65.28
15678;BME280;7939;50.814;6.368;2023-10-31T05:31:06;98314.03;;;14.78;65.59
15678;BME280;7939;50.814;6.368;2023-10-31T05:33:33;98317.81;;;14.70;65.29
15678;BME280;7939;50.814;6.368;2023-10-31T05:35:59;98324.56;;;14.72;65.24
15678;BME280;7939;50.814;6.368;2023-10-31T05:38:27;98334.47;;;14.81;65.87
15678;BME280;7939;50.814;6.368;2023-10-31T05:40:53;98332.75;;;14.82;65.58
15678;BME280;7939;50.814;6.368;2023-10-31T05:43:20;98338.13;;;14.76;65.17
15678;BME280;7939;50.814;6.368;2023-10-31T05:45:46;98344.94;;;14.77;65.42
15678;BME280;7939;50.814;6.368;2023-10-31T05:48:14;98346.91;;;14.70;65.02
15678;BME280;7939;50.814;6.368;2023-10-31T05:50:41;98348.38;;;14.77;65.15
15678;BME280;7939;50.814;6.368;2023-10-31T05:53:08;98342.66;;;14.71;65.82
15678;BME280;7939;50.814;6.368;2023-10-31T05:55:38;98351.72;;;14.79;65.13
15678;BME280;7939;50.814;6.368;2023-10-31T05:58:04;98349.19;;;14.56;65.49
15678;BME280;7939;50.814;6.368;2023-10-31T06:00:31;98357.19;;;14.70;65.66
15678;BME280;7939;50.814;6.368;2023-10-31T06:02:58;98359.78;;;14.70;65.52
15678;BME280;7939;50.814;6.368;2023-10-31T06:05:26;98360.69;;;14.69;65.70
15678;BME280;7939;50.814;6.368;2023-10-31T06:07:52;98361.59;;;14.68;65.35
15678;BME280;7939;50.814;6.368;2023-10-31T06:10:19;98368.53;;;14.66;65.38
15678;BME280;7939;50.814;6.368;2023-10-31T06:12:46;98364.91;;;14.70;65.73
15678;BME280;7939;50.814;6.368;2023-10-31T06:15:13;98373.53;;;14.69;65.57
15678;BME280;7939;50.814;6.368;2023-10-31T06:17:40;98376.34;;;14.63;65.44
15678;BME280;7939;50.814;6.368;2023-10-31T06:20:07;98372.69;;;14.69;65.23
15678;BME280;7939;50.814;6.368;2023-10-31T06:22:35;98370.97;;;14.69;65.47
15678;BME280;7939;50.814;6.368;2023-10-31T06:25:02;98382.97;;;14.69;65.73
15678;BME280;7939;50.814;6.368;2023-10-31T06:27:29;98386.47;;;14.68;66.00
15678;BME280;7939;50.814;6.368;2023-10-31T06:29:55;98383.47;;;14.56;65.86
15678;BME280;7939;50.814;6.368;2023-10-31T06:32:22;98394.41;;;14.62;65.73
15678;BME280;7939;50.814;6.368;2023-10-31T06:34:48;98399.44;;;14.65;65.93
15678;BME280;7939;50.814;6.368;2023-10-31T06:37:15;98398.59;;;14.64;65.46
15678;BME280;7939;50.814;6.368;2023-10-31T06:39:43;98409.91;;;14.60;65.08
15678;BME280;7939;50.814;6.368;2023-10-31T06:42:09;98414.22;;;14.60;65.58
15678;BME280;7939;50.814;6.368;2023-10-31T06:44:36;98430.41;;;14.62;65.30
15678;BME280;7939;50.814;6.368;2023-10-31T06:47:03;98422.75;;;14.60;65.70
15678;BME280;7939;50.814;6.368;2023-10-31T06:49:29;98429.03;;;14.53;65.22
15678;BME280;7939;50.814;6.368;2023-10-31T06:51:56;98436.75;;;14.53;65.15
15678;BME280;7939;50.814;6.368;2023-10-31T06:54:23;98431.69;;;14.50;65.41
15678;BME280;7939;50.814;6.368;2023-10-31T06:56:51;98439.19;;;14.56;65.78
15678;BME280;7939;50.814;6.368;2023-10-31T06:59:17;98440.22;;;14.52;65.42
15678;BME280;7939;50.814;6.368;2023-10-31T07:01:44;98448.47;;;14.60;65.07
15678;BME280;7939;50.814;6.368;2023-10-31T07:04:11;98447.50;;;14.63;65.42
15678;BME280;7939;50.814;6.368;2023-10-31T07:06:39;98458.81;;;14.59;65.04
15678;BME280;7939;50.814;6.368;2023-10-31T07:09:05;98462.00;;;14.65;65.18
15678;BME280;7939;50.814;6.368;2023-10-31T07:11:33;98450.31;;;14.56;65.53
15678;BME280;7939;50.814;6.368;2023-10-31T07:14:01;98451.88;;;14.61;65.29
15678;BME280;7939;50.814;6.368;2023-10-31T07:16:29;98459.34;;;14.67;65.37
15678;BME280;7939;50.814;6.368;2023-10-31T07:18:55;98459.19;;;14.71;65.16
15678;BME280;7939;50.814;6.368;2023-10-31T07:21:22;98454.38;;;14.62;65.27
15678;BME280;7939;50.814;6.368;2023-10-31T07:23:48;98465.44;;;14.64;65.21
15678;BME280;7939;50.814;6.368;2023-10-31T07:26:14;98464.56;;;14.65;65.08
15678;BME280;7939;50.814;6.368;2023-10-31T07:28:41;98458.63;;;14.63;65.32
15678;BME280;7939;50.814;6.368;2023-10-31T07:31:10;98467.13;;;14.65;65.41
15678;BME280;7939;50.814;6.368;2023-10-31T07:33:36;98467.84;;;14.69;65.32
15678;BME280;7939;50.814;6.368;2023-10-31T07:36:03;98474.19;;;14.60;65.11
15678;BME280;7939;50.814;6.368;2023-10-31T07:38:30;98477.19;;;14.71;65.49
15678;BME280;7939;50.814;6.368;2023-10-31T07:40:58;98481.72;;;14.65;65.26
15678;BME280;7939;50.814;6.368;2023-10-31T07:43:25;98477.44;;;14.64;65.49
15678;BME280;7939;50.814;6.368;2023-10-31T07:45:52;98493.09;;;14.57;65.31
15678;BME280;7939;50.814;6.368;2023-10-31T07:48:19;98489.47;;;14.63;65.30
15678;BME280;7939;50.814;6.368;2023-10-31T07:50:46;98490.38;;;14.62;65.46
15678;BME280;7939;50.814;6.368;2023-10-31T07:53:13;98488.81;;;14.58;65.70
15678;BME280;7939;50.814;6.368;2023-10-31T07:55:39;98498.59;;;14.72;65.70
15678;BME280;7939;50.814;6.368;2023-10-31T07:58:06;98491.13;;;14.64;65.60
15678;BME280;7939;50.814;6.368;2023-10-31T08:00:34;98505.28;;;14.76;65.62
15678;BME280;7939;50.814;6.368;2023-10-31T08:03:01;98497.75;;;14.71;65.31
15678;BME280;7939;50.814;6.368;2023-10-31T08:05:29;98498.75;;;14.67;65.58
15678;BME280;7939;50.814;6.368;2023-10-31T08:07:56;98514.25;;;14.66;65.51
15678;BME280;7939;50.814;6.368;2023-10-31T08:10:22;98502.06;;;14.71;65.43
15678;BME280;7939;50.814;6.368;2023-10-31T08:12:49;98520.16;;;14.68;65.50
15678;BME280;7939;50.814;6.368;2023-10-31T08:15:16;98520.09;;;14.69;65.36
15678;BME280;7939;50.814;6.368;2023-10-31T08:17:42;98523.25;;;14.77;65.82
15678;BME280;7939;50.814;6.368;2023-10-31T08:20:10;98538.06;;;14.71;65.99
15678;BME280;7939;50.814;6.368;2023-10-31T08:22:40;98529.72;;;14.64;65.62
15678;BME280;7939;50.814;6.368;2023-10-31T08:25:07;98536.56;;;14.65;65.50
15678;BME280;7939;50.814;6.368;2023-10-31T08:27:35;98535.44;;;14.72;65.61
15678;BME280;7939;50.814;6.368;2023-10-31T08:30:01;98539.56;;;14.76;65.56
15678;BME280;7939;50.814;6.368;2023-10-31T08:32:28;98536.88;;;14.79;65.50
15678;BME280;7939;50.814;6.368;2023-10-31T08:34:55;98543.22;;;14.71;65.37
15678;BME280;7939;50.814;6.368;2023-10-31T08:37:23;98539.84;;;14.69;65.42
15678;BME280;7939;50.814;6.368;2023-10-31T08:39:50;98528.31;;;14.79;65.61
15678;BME280;7939;50.814;6.368;2023-10-31T08:42:17;98535.88;;;14.83;65.52
15678;BME280;7939;50.814;6.368;2023-10-31T08:44:44;98541.06;;;14.82;65.57
15678;BME280;7939;50.814;6.368;2023-10-31T08:47:10;98546.03;;;14.87;65.40
15678;BME280;7939;50.814;6.368;2023-10-31T08:49:37;98551.09;;;14.90;65.20
15678;BME280;7939;50.814;6.368;2023-10-31T08:52:04;98549.97;;;14.97;64.94
15678;BME280;7939;50.814;6.368;2023-10-31T08:54:31;98555.50;;;14.86;64.82
15678;BME280;7939;50.814;6.368;2023-10-31T08:56:58;98560.25;;;14.97;65.34
15678;BME280;7939;50.814;6.368;2023-10-31T08:59:25;98563.22;;;14.86;65.24
15678;BME280;7939;50.814;6.368;2023-10-31T09:01:52;98571.53;;;14.93;64.83
15678;BME280;7939;50.814;6.368;2023-10-31T09:04:18;98570.69;;;14.92;65.22
15678;BME280;7939;50.814;6.368;2023-10-31T09:06:45;98578.03;;;15.03;65.11
15678;BME280;7939;50.814;6.368;2023-10-31T09:09:11;98578.88;;;15.03;65.15
15678;BME280;7939;50.814;6.368;2023-10-31T09:11:38;98586.63;;;15.02;64.70
15678;BME280;7939;50.814;6.368;2023-10-31T09:14:06;98590.88;;;15.03;64.92
15678;BME280;7939;50.814;6.368;2023-10-31T09:16:33;98591.44;;;14.88;64.42
15678;BME280;7939;50.814;6.368;2023-10-31T09:19:00;98596.69;;;15.08;64.72
15678;BME280;7939;50.814;6.368;2023-10-31T09:21:26;98604.81;;;14.97;64.51
15678;BME280;7939;50.814;6.368;2023-10-31T09:23:53;98599.25;;;15.08;64.62
15678;BME280;7939;50.814;6.368;2023-10-31T09:26:20;98602.25;;;14.97;64.41
15678;BME280;7939;50.814;6.368;2023-10-31T09:28:46;98606.19;;;15.06;63.87
15678;BME280;7939;50.814;6.368;2023-10-31T09:31:16;98603.41;;;15.12;64.18
15678;BME280;7939;50.814;6.368;2023-10-31T09:33:43;98612.03;;;15.11;64.34
15678;BME280;7939;50.814;6.368;2023-10-31T09:36:10;98618.38;;;15.24;64.52
15678;BME280;7939;50.814;6.368;2023-10-31T09:38:38;98614.97;;;15.24;64.37
15678;BME280;7939;50.814;6.368;2023-10-31T09:41:05;98620.28;;;15.19;64.14
15678;BME280;7939;50.814;6.368;2023-10-31T09:43:32;98611.13;;;15.12;64.39
15678;BME280;7939;50.814;6.368;2023-10-31T09:45:58;98622.78;;;15.21;64.11
15678;BME280;7939;50.814;6.368;2023-10-31T09:48:28;98622.69;;;15.24;64.68
15678;BME280;7939;50.814;6.368;2023-10-31T09:50:55;98627.53;;;15.31;64.24
15678;BME280;7939;50.814;6.368;2023-10-31T09:53:23;98626.09;;;15.24;64.33
15678;BME280;7939;50.814;6.368;2023-10-31T09:55:51;98624.28;;;15.28;63.82
15678;BME280;7939;50.814;6.368;2023-10-31T09:58:19;98637.13;;;15.28;64.01
15678;BME280;7939;50.814;6.368;2023-10-31T10:00:46;98637.22;;;15.25;63.63
15678;BME280;7939;50.814;6.368;2023-10-31T10:03:12;98633.59;;;15.30;63.74
15678;BME280;7939;50.814;6.368;2023-10-31T10:05:44;98638.69;;;15.32;63.52
15678;BME280;7939;50.814;6.368;2023-10-31T10:08:10;98643.34;;;15.22;62.99
15678;BME280;7939;50.814;6.368;2023-10-31T10:10:37;98639.50;;;15.32;63.36
15678;BME280;7939;50.814;6.368;2023-10-31T10:13:04;98647.59;;;15.23;62.54
15678;BME280;7939;50.814;6.368;2023-10-31T10:15:30;98655.84;;;15.31;63.13
15678;BME280;7939;50.814;6.368;2023-10-31T10:18:09;98656.75;;;15.30;62.92
15678;BME280;7939;50.814;6.368;2023-10-31T10:20:35;98653.19;;;15.34;62.85
15678;BME280;7939;50.814;6.368;2023-10-31T10:23:04;98664.94;;;15.42;63.32
15678;BME280;7939;50.814;6.368;2023-10-31T10:25:30;98669.50;;;15.33;62.62
15678;BME280;7939;50.814;6.368;2023-10-31T10:27:57;98673.72;;;15.36;62.84
15678;BME280;7939;50.814;6.368;2023-10-31T10:30:25;98676.22;;;15.37;62.89
15678;BME280;7939;50.814;6.368;2023-10-31T10:32:52;98675.16;;;15.43;63.25
15678;BME280;7939;50.814;6.368;2023-10-31T10:35:19;98678.56;;;15.44;62.67
15678;BME280;7939;50.814;6.368;2023-10-31T10:37:46;98680.22;;;15.46;63.01
15678;BME280;7939;50.814;6.368;2023-10-31T10:40:15;98684.63;;;15.43;62.75
15678;BME280;7939;50.814;6.368;2023-10-31T10:42:45;98678.56;;;15.44;62.44
15678;BME280;7939;50.814;6.368;2023-10-31T10:45:14;98694.16;;;15.41;62.37
15678;BME280;7939;50.814;6.368;2023-10-31T10:47:46;98679.78;;;15.35;62.13
15678;BME280;7939;50.814;6.368;2023-10-31T10:50:13;98677.19;;;15.35;61.97
15678;BME280;7939;50.814;6.368;2023-10-31T10:52:44;98684.00;;;15.36;62.29
15678;BME280;7939;50.814;6.368;2023-10-31T10:55:13;98688.03;;;15.43;62.49
15678;BME280;7939;50.814;6.368;2023-10-31T10:57:48;98690.50;;;15.46;62.50
15678;BME280;7939;50.814;6.368;2023-10-31T11:00:20;98689.63;;;15.46;62.33
15678;BME280;7939;50.814;6.368;2023-10-31T11:02:51;98687.75;;;15.51;62.72
15678;BME280;7939;50.814;6.368;2023-10-31T11:05:18;98681.75;;;15.50;62.83
15678;BME280;7939;50.814;6.368;2023-10-31T11:07:46;98694.56;;;15.52;62.53
15678;BME280;7939;50.814;6.368;2023-10-31T11:10:14;98691.97;;;15.53;62.50
15678;BME280;7939;50.814;6.368;2023-10-31T11:12:42;98690.16;;;15.55;62.37
15678;BME280;7939;50.814;6.368;2023-10-31T11:15:11;98687.81;;;15.49;62.24
15678;BME280;7939;50.814;6.368;2023-10-31T11:17:46;98700.53;;;15.54;62.24
15678;BME280;7939;50.814;6.368;2023-10-31T11:20:15;98702.13;;;15.56;62.43
15678;BME280;7939;50.814;6.368;2023-10-31T11:22:43;98704.75;;;15.55;61.99
15678;BME280;7939;50.814;6.368;2023-10-31T11:25:13;98696.06;;;15.57;62.31
15678;BME280;7939;50.814;6.368;2023-10-31T11:27:46;98706.38;;;15.57;62.24
15678;BME280;7939;50.814;6.368;2023-10-31T11:30:22;98707.06;;;15.62;62.23
15678;BME280;7939;50.814;6.368;2023-10-31T11:32:49;98702.66;;;15.66;62.02
15678;BME280;7939;50.814;6.368;2023-10-31T11:35:18;98707.91;;;15.63;62.40
15678;BME280;7939;50.814;6.368;2023-10-31T11:37:47;98710.50;;;15.63;62.51
15678;BME280;7939;50.814;6.368;2023-10-31T11:40:15;98711.38;;;15.62;62.60
15678;BME280;7939;50.814;6.368;2023-10-31T11:42:41;98709.59;;;15.64;62.93
15678;BME280;7939;50.814;6.368;2023-10-31T11:45:08;98722.38;;;15.67;62.26
15678;BME280;7939;50.814;6.368;2023-10-31T11:47:46;98718.13;;;15.66;62.23
15678;BME280;7939;50.814;6.368;2023-10-31T11:50:13;98718.13;;;15.66;62.35
15678;BME280;7939;50.814;6.368;2023-10-31T11:52:39;98715.47;;;15.68;62.23
15678;BME280;7939;50.814;6.368;2023-10-31T11:55:08;98715.63;;;15.63;62.38
15678;BME280;7939;50.814;6.368;2023-10-31T11:57:35;98711.38;;;15.62;61.74
15678;BME280;7939;50.814;6.368;2023-10-31T12:00:02;98705.28;;;15.64;61.94
15678;BME280;7939;50.814;6.368;2023-10-31T12:02:30;98710.25;;;15.69;61.58
15678;BME280;7939;50.814;6.368;2023-10-31T12:05:08;98703.50;;;15.67;61.82
15678;BME280;7939;50.814;6.368;2023-10-31T12:07:42;98703.66;;;15.62;61.48
15678;BME280;7939;50.814;6.368;2023-10-31T12:10:09;98704.41;;;15.66;61.40
15678;BME280;7939;50.814;6.368;2023-10-31T12:12:36;98709.41;;;15.69;61.59
15678;BME280;7939;50.814;6.368;2023-10-31T12:15:06;98710.16;;;15.72;61.70
15678;BME280;7939;50.814;6.368;2023-10-31T12:17:33;98702.47;;;15.71;61.58
15678;BME280;7939;50.814;6.368;2023-10-31T12:20:03;98711.75;;;15.75;61.30
15678;BME280;7939;50.814;6.368;2023-10-31T12:22:31;98702.22;;;15.77;61.61
15678;BME280;7939;50.814;6.368;2023-10-31T12:25:00;98712.59;;;15.75;61.34
15678;BME280;7939;50.814;6.368;2023-10-31T12:27:41;98706.53;;;15.76;61.38
15678;BME280;7939;50.814;6.368;2023-10-31T12:30:09;98705.59;;;15.79;61.31
15678;BME280;7939;50.814;6.368;2023-10-31T12:32:36;98710.69;;;15.80;61.71
15678;BME280;7939;50.814;6.368;2023-10-31T12:35:03;98703.97;;;15.76;61.25
15678;BME280;7939;50.814;6.368;2023-10-31T12:37:32;98708.19;;;15.79;61.34
15678;BME280;7939;50.814;6.368;2023-10-31T12:39:59;98696.97;;;15.80;61.47
15678;BME280;7939;50.814;6.368;2023-10-31T12:42:30;98707.97;;;15.83;61.60
15678;BME280;7939;50.814;6.368;2023-10-31T12:44:59;98707.94;;;15.85;61.83
15678;BME280;7939;50.814;6.368;2023-10-31T12:47:25;98697.66;;;15.85;61.53
15678;BME280;7939;50.814;6.368;2023-10-31T12:50:09;98694.22;;;15.84;61.10
15678;BME280;7939;50.814;6.368;2023-10-31T12:52:47;98695.00;;;15.86;61.26
15678;BME280;7939;50.814;6.368;2023-10-31T12:55:18;98693.25;;;15.87;61.38
15678;BME280;7939;50.814;6.368;2023-10-31T12:57:45;98695.78;;;15.88;61.83
15678;BME280;7939;50.814;6.368;2023-10-31T13:00:14;98699.25;;;15.87;61.52
15678;BME280;7939;50.814;6.368;2023-10-31T13:02:42;98695.91;;;15.85;61.15
15678;BME280;7939;50.814;6.368;2023-10-31T13:05:10;98701.81;;;15.87;61.46
15678;BME280;7939;50.814;6.368;2023-10-31T13:07:38;98696.56;;;15.90;61.67
15678;BME280;7939;50.814;6.368;2023-10-31T13:10:08;98694.00;;;15.90;61.56